Time;durP1;ratioP1;P1;durP2;ratioP2;P2;SDS_P1;SDS_P2;PMS_P1;PMS_P2;Temp;Humidity;BMP_temperature;BMP_pressure;BME280_temperature;BME280_humidity;BME280_pressure;Samples;Min_cycle;Max_cycle;Signal;HPM_P1;HPM_P2
2021/11/25 00:00:23;;;;;;;12.37;6.00;;;4.90;1.00;;;;;;5002509;28;20166;-73
2021/11/25 00:02:58;;;;;;;16.23;6.20;;;4.80;1.00;;;;;;5007753;28;20169;-73
2021/11/25 00:05:23;;;;;;;10.10;5.63;;;4.80;1.00;;;;;;5011229;28;20400;-73
2021/11/25 00:08:04;;;;;;;12.27;6.17;;;4.70;1.00;;;;;;5006226;28;20404;-73
2021/11/25 00:10:46;;;;;;;13.43;6.60;;;4.80;1.00;;;;;;5016233;28;20412;-75
2021/11/25 00:13:27;;;;;;;9.63;6.57;;;4.80;1.00;;;;;;5015801;28;20459;-75
2021/11/25 00:15:57;;;;;;;12.77;6.30;;;4.80;1.00;;;;;;5015705;28;20523;-75
2021/11/25 00:18:23;;;;;;;12.15;6.38;;;4.80;1.00;;;;;;5015820;28;20499;-75
2021/11/25 00:20:53;;;;;;;8.70;6.30;;;4.80;1.00;;;;;;5015651;28;20272;-75
2021/11/25 00:23:21;;;;;;;20.37;6.97;;;4.80;1.00;;;;;;5015591;28;20465;-75
2021/11/25 00:25:51;;;;;;;13.37;6.70;;;4.80;1.00;;;;;;5015858;28;20404;-73
2021/11/25 00:28:21;;;;;;;12.03;6.33;;;4.80;1.00;;;;;;5015193;28;20780;-73
2021/11/25 00:30:52;;;;;;;11.07;6.27;;;4.90;1.00;;;;;;5015105;28;20424;-73
2021/11/25 00:33:28;;;;;;;11.90;6.20;;;4.80;1.00;;;;;;5003281;28;20813;-73
2021/11/25 00:35:57;;;;;;;12.15;7.47;;;4.70;1.00;;;;;;5015048;28;20922;-73
2021/11/25 00:38:23;;;;;;;10.95;5.40;;;4.80;1.00;;;;;;5015121;28;20181;-73
2021/11/25 00:40:49;;;;;;;10.70;5.97;;;4.80;1.00;;;;;;5015515;28;20181;-73
2021/11/25 00:43:16;;;;;;;13.77;6.40;;;4.80;1.00;;;;;;5015180;28;20422;-73
2021/11/25 00:45:42;;;;;;;16.00;6.65;;;4.80;1.00;;;;;;5014955;28;20176;-73
2021/11/25 00:48:09;;;;;;;14.37;6.80;;;4.80;1.00;;;;;;5014845;28;20189;-73
2021/11/25 00:50:36;;;;;;;15.50;5.85;;;4.80;1.00;;;;;;5014791;28;20177;-73
2021/11/25 00:53:02;;;;;;;10.67;6.00;;;;;;;;;;5014457;28;20209;-73
2021/11/25 00:55:28;;;;;;;14.93;6.38;;;;;;;;;;5001822;28;20746;-74
2021/11/25 00:57:57;;;;;;;12.13;6.10;;;4.70;1.00;;;;;;5013498;28;20511;-73
2021/11/25 01:00:34;;;;;;;21.73;8.57;;;4.70;1.00;;;;;;5014965;28;20432;-73
2021/11/25 01:02:59;;;;;;;12.73;6.63;;;4.70;1.00;;;;;;5014662;28;20431;-73
2021/11/25 01:05:25;;;;;;;11.73;6.53;;;;;;;;;;5014645;28;20907;-73
2021/11/25 01:07:51;;;;;;;13.23;7.32;;;4.70;1.00;;;;;;5014710;28;20235;-73
2021/11/25 01:10:21;;;;;;;9.20;5.40;;;4.70;1.00;;;;;;5014806;28;20177;-74
2021/11/25 01:12:47;;;;;;;8.75;5.70;;;4.70;1.00;;;;;;5014193;28;20447;-73
2021/11/25 01:15:15;;;;;;;12.48;7.05;;;4.70;1.00;;;;;;5014583;28;20165;-73
2021/11/25 01:17:42;;;;;;;16.50;6.57;;;4.70;1.00;;;;;;5013901;28;20181;-73
2021/11/25 01:20:16;;;;;;;11.07;6.10;;;4.60;1.00;;;;;;5014654;28;20184;-73
2021/11/25 01:22:43;;;;;;;8.90;5.70;;;4.60;1.00;;;;;;5013829;28;20168;-73
2021/11/25 01:25:09;;;;;;;11.97;6.83;;;4.60;1.00;;;;;;5014535;28;20188;-73
2021/11/25 01:27:35;;;;;;;13.23;6.17;;;4.60;1.00;;;;;;5013968;28;20947;-73
2021/11/25 01:30:02;;;;;;;13.83;7.43;;;4.50;1.00;;;;;;5014274;28;20177;-73
2021/11/25 01:32:28;;;;;;;9.85;6.15;;;4.60;1.00;;;;;;5013811;28;20200;-73
2021/11/25 01:34:55;;;;;;;16.63;6.97;;;4.60;1.00;;;;;;5014266;28;20204;-73
2021/11/25 01:37:23;;;;;;;15.83;7.00;;;4.60;1.00;;;;;;5014162;28;20675;-73
2021/11/25 01:39:49;;;;;;;14.30;7.00;;;4.60;1.00;;;;;;5014012;28;20551;-73
2021/11/25 01:42:15;;;;;;;12.73;7.17;;;4.50;1.00;;;;;;5014495;28;20514;-73
2021/11/25 01:44:45;;;;;;;13.13;7.03;;;4.50;1.00;;;;;;5014203;28;20184;-73
2021/11/25 01:47:11;;;;;;;18.38;8.30;;;4.50;1.00;;;;;;5013607;28;20196;-73
2021/11/25 01:49:37;;;;;;;19.70;6.47;;;4.60;1.00;;;;;;5014456;28;20185;-73
2021/11/25 01:52:04;;;;;;;15.67;7.30;;;4.60;1.00;;;;;;5011096;28;20200;-73
2021/11/25 01:54:29;;;;;;;16.33;6.13;;;4.60;1.00;;;;;;5013933;28;20412;-73
2021/11/25 01:56:56;;;;;;;13.10;7.30;;;;;;;;;;5013959;28;20836;-73
2021/11/25 01:59:28;;;;;;;18.88;7.68;;;4.70;1.00;;;;;;4994290;28;20196;-73
2021/11/25 02:01:57;;;;;;;13.63;6.77;;;4.70;1.00;;;;;;5010067;28;20188;-73
2021/11/25 02:04:23;;;;;;;16.07;7.10;;;4.70;1.00;;;;;;5013641;28;20825;-73
2021/11/25 02:06:52;;;;;;;18.40;7.40;;;4.80;1.00;;;;;;5009688;28;20443;-73
2021/11/25 02:09:17;;;;;;;12.43;6.27;;;4.80;1.00;;;;;;5013740;28;20412;-73
2021/11/25 02:11:46;;;;;;;22.43;7.43;;;4.90;1.00;;;;;;5014137;28;20482;-75
2021/11/25 02:14:12;;;;;;;16.15;7.35;;;4.90;1.00;;;;;;5013933;28;20294;-75
2021/11/25 02:16:39;;;;;;;12.20;6.30;;;4.80;1.00;;;;;;5013722;28;20575;-75
2021/11/25 02:19:06;;;;;;;13.40;6.83;;;4.90;1.00;;;;;;5013941;28;20169;-75
2021/11/25 02:21:35;;;;;;;20.00;6.53;;;4.80;1.00;;;;;;5013992;28;20407;-75
2021/11/25 02:24:01;;;;;;;11.67;6.50;;;4.80;1.00;;;;;;5013705;28;20627;-75
2021/11/25 02:26:27;;;;;;;14.60;7.70;;;4.90;1.00;;;;;;5013094;28;20518;-73
2021/11/25 02:28:53;;;;;;;14.17;6.70;;;4.90;1.00;;;;;;5013318;28;20278;-73
2021/11/25 02:31:22;;;;;;;10.83;6.20;;;4.90;1.00;;;;;;5016369;28;20496;-73
2021/11/25 02:33:47;;;;;;;14.63;6.97;;;4.80;1.00;;;;;;5015739;28;20459;-73
2021/11/25 02:36:14;;;;;;;9.53;5.83;;;4.70;1.00;;;;;;5017760;28;20253;-73
2021/11/25 02:38:40;;;;;;;14.15;6.88;;;4.80;1.00;;;;;;5028628;28;20251;-73
2021/11/25 02:41:10;;;;;;;16.50;7.78;;;4.80;1.00;;;;;;5017648;28;20181;-75
2021/11/25 02:43:45;;;;;;;17.43;7.20;;;4.80;1.00;;;;;;5009122;28;20175;-73
2021/11/25 02:46:15;;;;;;;13.43;7.45;;;4.80;1.00;;;;;;5010775;28;20743;-73
2021/11/25 02:48:43;;;;;;;20.60;6.57;;;4.90;1.00;;;;;;5017541;28;20196;-73
2021/11/25 02:51:13;;;;;;;13.70;7.00;;;4.90;1.00;;;;;;5016636;28;20445;-73
2021/11/25 02:53:40;;;;;;;13.02;6.47;;;4.90;1.00;;;;;;5016977;28;20590;-73
2021/11/25 02:56:22;;;;;;;13.35;6.70;;;4.90;1.00;;;;;;5017100;28;20219;-74
2021/11/25 02:58:54;;;;;;;11.65;6.57;;;4.90;1.00;;;;;;5017163;28;20671;-75
2021/11/25 03:01:36;;;;;;;12.00;6.22;;;4.90;1.00;;;;;;5017411;28;20185;-75
2021/11/25 03:04:03;;;;;;;11.90;6.40;;;4.90;1.00;;;;;;5016807;28;20235;-75
2021/11/25 03:06:40;;;;;;;10.43;5.67;;;4.90;1.00;;;;;;5016077;28;20908;-75
2021/11/25 03:09:09;;;;;;;15.00;6.53;;;4.90;1.00;;;;;;5017059;28;20399;-75
2021/11/25 03:11:36;;;;;;;15.27;7.68;;;4.90;1.00;;;;;;5017681;28;20438;-73
2021/11/25 03:14:07;;;;;;;10.07;5.55;;;4.90;1.00;;;;;;5016546;28;20208;-73
2021/11/25 03:16:34;;;;;;;13.07;7.13;;;4.80;1.00;;;;;;5016730;28;20200;-73
2021/11/25 03:19:04;;;;;;;12.30;6.25;;;4.90;1.00;;;;;;5016450;28;20278;-73
2021/11/25 03:21:30;;;;;;;14.50;6.60;;;4.90;1.00;;;;;;5016773;28;20184;-74
2021/11/25 03:23:57;;;;;;;19.50;6.33;;;4.80;1.00;;;;;;5011110;28;20416;-73
2021/11/25 03:26:26;;;;;;;14.73;7.00;;;4.80;1.00;;;;;;5016592;28;20408;-73
2021/11/25 03:29:04;;;;;;;14.38;6.32;;;4.80;1.00;;;;;;5017210;28;20407;-76
2021/11/25 03:31:31;;;;;;;14.10;6.50;;;4.90;1.00;;;;;;5016806;28;20184;-75
2021/11/25 03:33:59;;;;;;;9.70;5.30;;;4.80;1.00;;;;;;5016235;28;20454;-75
2021/11/25 03:36:28;;;;;;;10.00;5.90;;;4.80;1.00;;;;;;5003402;28;20433;-75
2021/11/25 03:38:58;;;;;;;8.93;5.50;;;4.90;1.00;;;;;;5010529;28;20416;-75
2021/11/25 03:41:35;;;;;;;12.05;6.15;;;4.80;1.00;;;;;;5016309;28;20185;-75
2021/11/25 03:44:01;;;;;;;10.30;7.10;;;;;;;;;;5016469;28;20502;-74
2021/11/25 03:46:30;;;;;;;15.70;6.90;;;4.70;1.00;;;;;;5016235;28;20420;-75
2021/11/25 03:49:04;;;;;;;15.83;8.93;;;4.70;1.00;;;;;;4997109;28;20435;-75
2021/11/25 03:51:34;;;;;;;14.47;8.53;;;4.70;1.00;;;;;;5012794;28;20423;-75
2021/11/25 03:53:59;;;;;;;19.50;7.10;;;4.70;1.00;;;;;;5005964;28;20456;-75
2021/11/25 03:56:25;;;;;;;15.10;8.17;;;4.70;1.00;;;;;;5000274;28;20416;-75
2021/11/25 03:58:51;;;;;;;15.30;7.17;;;4.70;1.00;;;;;;5016446;28;20416;-75
2021/11/25 04:01:28;;;;;;;16.67;7.63;;;4.70;1.00;;;;;;5016294;28;20423;-75
2021/11/25 04:03:58;;;;;;;11.80;6.10;;;4.70;1.00;;;;;;5015848;28;20176;-75
2021/11/25 04:06:23;;;;;;;16.77;7.95;;;4.70;1.00;;;;;;5016155;28;20412;-75
2021/11/25 04:09:22;;;;;;;12.77;7.93;;;4.70;1.00;;;;;;5015940;28;20708;-75
2021/11/25 04:11:48;;;;;;;14.77;7.23;;;4.60;1.00;;;;;;4996435;28;20193;-75
2021/11/25 04:14:16;;;;;;;16.90;7.70;;;4.60;1.00;;;;;;5012297;28;20507;-73
2021/11/25 04:16:41;;;;;;;14.45;7.35;;;4.60;1.00;;;;;;5014175;28;20185;-73
2021/11/25 04:19:07;;;;;;;14.67;7.77;;;4.60;1.00;;;;;;5015480;28;20196;-73
2021/11/25 04:21:33;;;;;;;13.43;7.57;;;4.60;1.00;;;;;;5015611;28;20271;-73
2021/11/25 04:23:59;;;;;;;24.57;9.57;;;4.60;1.00;;;;;;5015148;28;20571;-73
2021/11/25 04:26:24;;;;;;;17.20;8.43;;;4.60;1.00;;;;;;5015843;28;20601;-73
2021/11/25 04:28:50;;;;;;;11.03;6.90;;;4.60;1.00;;;;;;5015599;28;20566;-73
2021/11/25 04:36:56;;;;;;;14.90;7.40;;;4.50;1.00;;;;;;5011273;28;20196;-73
2021/11/25 04:39:21;;;;;;;24.73;8.63;;;4.60;1.00;;;;;;5006120;28;20424;-73
2021/11/25 04:41:47;;;;;;;18.20;7.20;;;;;;;;;;5013696;28;20267;-73
2021/11/25 04:44:16;;;;;;;13.80;7.10;;;4.60;1.00;;;;;;5014372;28;20542;-75
2021/11/25 04:46:41;;;;;;;14.05;8.15;;;4.60;1.00;;;;;;5015026;28;20431;-75
2021/11/25 04:49:07;;;;;;;15.50;8.57;;;4.60;1.00;;;;;;5015682;28;20628;-75
2021/11/25 04:51:34;;;;;;;15.40;7.37;;;4.60;1.00;;;;;;5015015;28;20177;-75
2021/11/25 04:54:10;;;;;;;18.50;8.20;;;4.60;1.00;;;;;;5014432;28;20439;-75
2021/11/25 04:56:40;;;;;;;18.43;7.50;;;4.60;1.00;;;;;;5014459;28;20466;-75
2021/11/25 04:59:10;;;;;;;14.93;7.43;;;4.60;1.00;;;;;;5015065;28;20412;-73
2021/11/25 05:01:36;;;;;;;17.27;7.80;;;4.60;1.00;;;;;;5007593;28;20412;-73
2021/11/25 05:04:01;;;;;;;15.17;8.20;;;4.60;1.00;;;;;;5008838;28;20179;-73
2021/11/25 05:06:27;;;;;;;14.87;7.70;;;4.60;1.00;;;;;;5014799;28;20400;-73
2021/11/25 05:08:53;;;;;;;14.73;7.97;;;4.60;1.00;;;;;;5014853;28;20185;-73
2021/11/25 05:11:19;;;;;;;16.40;7.40;;;4.50;1.00;;;;;;5007589;28;20939;-73
2021/11/25 05:13:52;;;;;;;16.43;7.50;;;4.50;1.00;;;;;;5008522;28;20674;-75
2021/11/25 05:16:17;;;;;;;18.55;6.80;;;4.60;1.00;;;;;;5014510;28;20223;-76
2021/11/25 05:18:43;;;;;;;15.47;8.57;;;4.60;1.00;;;;;;5014914;28;20264;-75
2021/11/25 05:21:09;;;;;;;30.50;8.97;;;4.60;1.00;;;;;;5014647;28;20214;-75
2021/11/25 05:23:40;;;;;;;16.07;8.13;;;4.60;1.00;;;;;;5000377;28;20421;-75
2021/11/25 05:26:07;;;;;;;13.32;7.85;;;;;;;;;;5010111;28;20189;-75
2021/11/25 05:28:32;;;;;;;19.80;9.25;;;4.50;1.00;;;;;;5014848;28;20223;-73
2021/11/25 05:31:03;;;;;;;14.13;7.70;;;4.50;1.00;;;;;;5013925;28;20295;-73
2021/11/25 05:33:29;;;;;;;15.63;7.90;;;4.60;1.00;;;;;;5014239;28;20734;-73
2021/11/25 05:35:55;;;;;;;15.90;7.10;;;4.60;1.00;;;;;;5006493;28;20228;-73
2021/11/25 05:38:21;;;;;;;9.53;6.53;;;4.50;1.00;;;;;;5013356;28;20223;-73
2021/11/25 05:40:47;;;;;;;12.17;6.60;;;;;;;;;;5013964;28;20169;-74
2021/11/25 05:43:13;;;;;;;15.40;7.60;;;4.50;1.00;;;;;;5014406;28;20173;-72
2021/11/25 05:45:46;;;;;;;15.60;6.67;;;4.50;1.00;;;;;;5013879;28;20545;-76
2021/11/25 05:48:45;;;;;;;11.80;6.80;;;4.50;1.00;;;;;;5014155;28;20707;-75
2021/11/25 05:51:16;;;;;;;13.02;6.70;;;4.60;1.00;;;;;;4990717;28;20268;-75
2021/11/25 05:53:46;;;;;;;15.40;7.80;;;4.60;1.00;;;;;;4994448;28;20695;-75
2021/11/25 05:56:11;;;;;;;16.55;8.00;;;4.50;1.00;;;;;;5002878;28;20748;-75
2021/11/25 05:58:46;;;;;;;18.27;7.80;;;4.50;1.00;;;;;;4994488;28;20181;-73
2021/11/25 06:01:11;;;;;;;15.45;7.20;;;4.50;1.00;;;;;;4993617;28;20288;-73
2021/11/25 06:03:37;;;;;;;14.13;7.60;;;4.60;1.00;;;;;;4994056;28;20684;-73
2021/11/25 06:06:03;;;;;;;11.63;6.60;;;4.60;1.00;;;;;;4993554;28;20808;-73
2021/11/25 06:08:28;;;;;;;13.13;7.30;;;4.60;1.00;;;;;;4994190;28;20423;-73
2021/11/25 06:10:56;;;;;;;16.30;7.97;;;4.60;1.00;;;;;;4988319;28;20531;-73
2021/11/25 06:13:22;;;;;;;13.73;7.25;;;4.50;1.00;;;;;;4994254;28;20239;-75
2021/11/25 06:16:21;;;;;;;14.33;7.33;;;4.50;1.00;;;;;;4993833;28;20181;-75
2021/11/25 06:18:47;;;;;;;15.45;7.65;;;4.50;1.00;;;;;;4988626;28;20415;-75
2021/11/25 06:21:22;;;;;;;14.17;7.10;;;4.50;1.00;;;;;;4994006;28;20178;-72
2021/11/25 06:23:52;;;;;;;15.50;7.88;;;4.50;1.00;;;;;;4994301;28;20169;-75
2021/11/25 06:26:49;;;;;;;15.43;7.85;;;4.50;1.00;;;;;;4994044;28;20217;-74
2021/11/25 06:29:28;;;;;;;13.40;7.60;;;4.50;1.00;;;;;;4981474;28;20173;-75
2021/11/25 06:31:58;;;;;;;16.97;7.40;;;4.50;1.00;;;;;;4989000;28;20791;-75
2021/11/25 06:34:24;;;;;;;17.60;7.65;;;4.50;1.00;;;;;;4991080;28;20780;-74
2021/11/25 06:36:49;;;;;;;13.53;7.60;;;4.50;1.00;;;;;;4990546;28;20174;-74
2021/11/25 06:39:34;;;;;;;14.53;7.60;;;4.40;1.00;;;;;;4994262;28;20413;-77
2021/11/25 06:42:21;;;;;;;17.50;7.68;;;4.50;1.00;;;;;;4993501;28;20542;-76
2021/11/25 06:44:47;;;;;;;14.15;7.85;;;4.50;1.00;;;;;;4991671;28;20169;-76
2021/11/25 06:47:40;;;;;;;12.80;6.70;;;4.50;1.00;;;;;;4993697;28;20174;-76
2021/11/25 06:50:10;;;;;;;14.98;7.93;;;4.50;1.00;;;;;;4974940;28;20637;-76
2021/11/25 06:52:37;;;;;;;10.90;6.68;;;4.60;1.00;;;;;;4986582;28;20213;-75
2021/11/25 06:55:05;;;;;;;15.35;7.45;;;4.50;1.00;;;;;;4993921;28;20675;-75
2021/11/25 06:57:31;;;;;;;19.70;8.77;;;4.50;1.00;;;;;;4993746;28;20180;-75
2021/11/25 07:00:09;;;;;;;18.77;8.43;;;4.50;1.00;;;;;;4978148;28;20245;-74
2021/11/25 07:02:41;;;;;;;20.67;8.77;;;;;;;;;;4988240;28;20707;-74
2021/11/25 07:05:08;;;;;;;14.48;6.75;;;4.50;1.00;;;;;;4993621;28;20634;-73
2021/11/25 07:07:34;;;;;;;20.50;9.23;;;4.50;1.00;;;;;;4992727;28;20621;-74
2021/11/25 07:10:01;;;;;;;18.10;7.75;;;4.50;1.00;;;;;;4993344;28;20190;-74
2021/11/25 07:12:41;;;;;;;15.77;8.25;;;4.50;1.00;;;;;;4993567;28;20284;-74
2021/11/25 07:15:12;;;;;;;15.32;8.60;;;4.50;1.00;;;;;;4993770;28;20172;-74
2021/11/25 07:17:38;;;;;;;13.82;7.47;;;4.50;1.00;;;;;;4996456;28;20216;-74
2021/11/25 07:20:05;;;;;;;15.20;7.83;;;4.50;1.00;;;;;;4997173;28;20197;-74
2021/11/25 07:22:33;;;;;;;16.02;8.23;;;4.50;1.00;;;;;;4995573;28;20597;-74
2021/11/25 07:25:05;;;;;;;21.48;8.60;;;4.50;1.00;;;;;;4997078;28;20649;-76
2021/11/25 07:27:30;;;;;;;15.35;8.05;;;4.50;1.00;;;;;;4996234;28;20256;-74
2021/11/25 07:29:56;;;;;;;16.10;8.73;;;4.60;1.00;;;;;;4996972;28;20216;-75
2021/11/25 07:32:34;;;;;;;19.17;7.43;;;4.60;1.00;;;;;;4996637;28;20263;-76
2021/11/25 07:35:00;;;;;;;20.10;8.40;;;4.60;1.00;;;;;;4986512;28;20327;-75
2021/11/25 07:37:26;;;;;;;15.57;8.10;;;4.60;1.00;;;;;;4996994;28;20668;-75
2021/11/25 07:40:27;;;;;;;12.67;7.50;;;4.60;1.00;;;;;;4996687;28;20236;-75
2021/11/25 07:43:04;;;;;;;15.77;7.15;;;4.70;1.00;;;;;;4993142;28;20419;-75
2021/11/25 07:45:51;;;;;;;13.88;7.45;;;4.60;1.00;;;;;;4979779;28;20182;-75
2021/11/25 07:48:34;;;;;;;11.63;6.85;;;4.70;1.00;;;;;;4996699;28;20660;-75
2021/11/25 07:51:04;;;;;;;17.42;7.75;;;4.70;1.00;;;;;;4995347;28;20269;-75
2021/11/25 07:53:30;;;;;;;15.88;7.30;;;4.70;1.00;;;;;;4996328;28;20641;-76
2021/11/25 07:55:56;;;;;;;17.37;8.00;;;4.70;1.00;;;;;;4996921;28;20169;-75
2021/11/25 07:58:34;;;;;;;17.38;7.10;;;4.80;1.00;;;;;;4996351;28;20433;-75
2021/11/25 08:01:04;;;;;;;15.27;8.40;;;4.80;1.00;;;;;;4991694;28;20185;-74
2021/11/25 08:03:34;;;;;;;12.77;6.95;;;4.90;1.00;;;;;;4988316;28;20908;-74
2021/11/25 08:06:00;;;;;;;17.10;7.80;;;4.90;1.00;;;;;;4983313;28;20548;-74
2021/11/25 08:08:26;;;;;;;14.23;8.07;;;;;;;;;;4996465;28;20421;-74
2021/11/25 08:10:52;;;;;;;16.90;6.87;;;4.90;1.00;;;;;;4986901;28;20437;-73
2021/11/25 08:13:17;;;;;;;11.30;6.43;;;4.90;1.00;;;;;;4994176;28;20480;-74
2021/11/25 08:15:46;;;;;;;14.40;7.43;;;4.90;1.00;;;;;;4996537;28;20162;-75
2021/11/25 08:18:11;;;;;;;16.92;7.95;;;5.00;1.00;;;;;;4988549;28;20236;-75
2021/11/25 08:20:37;;;;;;;10.90;6.77;;;5.10;1.00;;;;;;4990393;28;20178;-75
2021/11/25 08:23:03;;;;;;;15.30;7.87;;;;;;;;;;4995941;28;20170;-75
2021/11/25 08:25:29;;;;;;;13.38;7.60;;;5.00;1.00;;;;;;4995964;28;20676;-75
2021/11/25 08:28:00;;;;;;;15.37;7.80;;;5.10;1.00;;;;;;4994932;28;20170;-75
2021/11/25 08:30:35;;;;;;;16.77;8.50;;;5.10;1.00;;;;;;4996293;28;20427;-75
2021/11/25 08:33:16;;;;;;;23.70;9.15;;;5.10;1.00;;;;;;4995541;28;20255;-75
2021/11/25 08:35:41;;;;;;;14.10;7.67;;;5.20;1.00;;;;;;4995621;28;20208;-76
2021/11/25 08:38:07;;;;;;;19.50;8.60;;;5.20;1.00;;;;;;4995764;28;20812;-75
2021/11/25 08:40:40;;;;;;;15.90;8.70;;;5.30;1.00;;;;;;4995261;28;20178;-75
2021/11/25 08:43:10;;;;;;;24.40;10.33;;;5.20;1.00;;;;;;4995748;28;20185;-75
2021/11/25 08:45:46;;;;;;;17.98;8.25;;;5.30;1.00;;;;;;4995448;28;20433;-74
2021/11/25 08:48:28;;;;;;;21.80;9.83;;;5.30;1.00;;;;;;4995231;28;20243;-74
2021/11/25 08:50:54;;;;;;;16.67;8.23;;;5.30;1.00;;;;;;4995127;28;20424;-74
2021/11/25 08:53:22;;;;;;;16.57;8.90;;;5.40;1.00;;;;;;4995106;28;20456;-74
2021/11/25 08:55:58;;;;;;;19.10;8.60;;;5.40;1.00;;;;;;4994967;28;20851;-74
2021/11/25 08:58:28;;;;;;;17.13;8.60;;;5.40;1.00;;;;;;4995052;28;20428;-74
2021/11/25 09:00:54;;;;;;;15.07;7.80;;;5.40;1.00;;;;;;4992114;28;20540;-74
2021/11/25 09:03:20;;;;;;;14.93;8.53;;;5.50;1.00;;;;;;4994907;28;20555;-75
2021/11/25 09:05:46;;;;;;;16.63;8.63;;;5.50;1.00;;;;;;4995060;28;20539;-74
2021/11/25 09:08:12;;;;;;;17.53;7.60;;;5.50;1.00;;;;;;4994914;28;20484;-74
2021/11/25 09:10:40;;;;;;;19.20;9.07;;;5.50;1.00;;;;;;4990926;28;20421;-74
2021/11/25 09:13:11;;;;;;;16.53;8.37;;;5.50;1.00;;;;;;4993728;28;20282;-74
2021/11/25 09:15:39;;;;;;;17.60;9.40;;;5.50;1.00;;;;;;4993464;28;20416;-74
2021/11/25 09:18:07;;;;;;;17.37;8.53;;;5.60;1.00;;;;;;4992901;28;20433;-74
2021/11/25 09:20:34;;;;;;;15.73;8.67;;;5.60;1.00;;;;;;4994743;28;20417;-74
2021/11/25 09:23:05;;;;;;;17.13;8.50;;;5.60;1.00;;;;;;4981804;28;20461;-74
2021/11/25 09:25:32;;;;;;;19.07;8.60;;;5.70;1.00;;;;;;4994648;28;20420;-74
2021/11/25 09:28:04;;;;;;;19.30;9.70;;;5.70;1.00;;;;;;4994721;28;20419;-74
2021/11/25 09:30:34;;;;;;;27.73;9.40;;;5.70;1.00;;;;;;4995046;28;20425;-76
2021/11/25 09:32:59;;;;;;;12.83;7.73;;;5.70;1.00;;;;;;4992244;28;20445;-76
2021/11/25 09:35:26;;;;;;;25.93;9.33;;;5.70;1.00;;;;;;4994294;28;21002;-76
2021/11/25 09:38:04;;;;;;;18.77;8.03;;;5.60;1.00;;;;;;4994612;28;20220;-76
2021/11/25 09:40:30;;;;;;;33.57;16.70;;;5.60;1.00;;;;;;4984238;28;20393;-76
2021/11/25 09:42:59;;;;;;;16.93;8.07;;;5.60;1.00;;;;;;4986752;28;20479;-75
2021/11/25 09:45:37;;;;;;;19.23;9.10;;;5.60;1.00;;;;;;4992702;28;20942;-76
2021/11/25 09:48:23;;;;;;;19.80;8.40;;;5.70;1.00;;;;;;4975068;28;20780;-76
2021/11/25 09:50:58;;;;;;;19.33;9.17;;;5.70;1.00;;;;;;4990713;28;20423;-75
2021/11/25 09:53:45;;;;;;;18.97;8.90;;;5.70;1.00;;;;;;4988844;28;20452;-75
2021/11/25 09:56:16;;;;;;;19.83;8.77;;;5.70;1.00;;;;;;4982258;28;20413;-76
2021/11/25 09:58:44;;;;;;;16.80;8.93;;;5.70;1.00;;;;;;4994341;28;20409;-75
2021/11/25 10:01:14;;;;;;;22.23;9.27;;;5.80;1.00;;;;;;4993538;28;20812;-75
2021/11/25 10:03:58;;;;;;;15.70;7.90;;;5.70;1.00;;;;;;4983750;28;20515;-74
2021/11/25 10:06:53;;;;;;;17.00;7.87;;;5.70;1.00;;;;;;4988229;28;20421;-74
2021/11/25 10:09:33;;;;;;;23.47;8.83;;;5.60;1.00;;;;;;4982089;28;20416;-74
2021/11/25 10:12:00;;;;;;;17.37;8.77;;;5.60;1.00;;;;;;4993794;28;20435;-74
2021/11/25 10:14:37;;;;;;;20.53;8.77;;;5.50;1.00;;;;;;4992444;28;20468;-74
2021/11/25 10:17:10;;;;;;;18.53;9.20;;;5.50;1.00;;;;;;4987620;28;20813;-76
2021/11/25 10:19:40;;;;;;;18.17;9.03;;;5.60;1.00;;;;;;4992122;28;20433;-76
2021/11/25 10:22:10;;;;;;;22.60;9.47;;;5.60;1.00;;;;;;4988786;28;20433;-76
2021/11/25 10:28:04;;;;;;;15.07;8.17;;;5.50;1.00;;;;;;4985315;28;20471;-76
2021/11/25 10:30:53;;;;;;;23.13;10.00;;;5.50;1.00;;;;;;4993335;28;20417;-76
2021/11/25 10:34:10;;;;;;;18.07;8.57;;;5.50;1.00;;;;;;4993954;28;20492;-77
2021/11/25 10:40:30;;;;;;;20.00;7.87;;;5.60;1.00;;;;;;4986391;28;20436;-77
2021/11/25 10:43:25;;;;;;;23.87;10.07;;;5.60;1.00;;;;;;4933637;29;20434;-77
2021/11/25 10:45:53;;;;;;;14.47;8.03;;;5.60;1.00;;;;;;4931806;29;20427;-75
2021/11/25 10:48:43;;;;;;;22.53;10.67;;;;;;;;;;4932232;29;20487;-75
2021/11/25 10:51:29;;;;;;;20.27;8.97;;;5.60;1.00;;;;;;4923132;29;20855;-74
2021/11/25 10:54:09;;;;;;;15.03;8.33;;;5.70;1.00;;;;;;4937337;29;20455;-74
2021/11/25 10:56:47;;;;;;;14.90;9.10;;;5.60;1.00;;;;;;4924721;29;20498;-74
2021/11/25 10:59:39;;;;;;;15.77;9.63;;;5.60;1.00;;;;;;4930404;29;20536;-74
2021/11/25 11:02:17;;;;;;;21.80;9.50;;;5.60;1.00;;;;;;4937565;29;20459;-74
2021/11/25 11:04:52;;;;;;;20.17;8.87;;;5.70;1.00;;;;;;4937388;29;20438;-74
2021/11/25 11:07:35;;;;;;;18.20;9.00;;;5.80;1.00;;;;;;4937300;29;20915;-74
2021/11/25 11:10:26;;;;;;;19.93;8.60;;;5.70;1.00;;;;;;4937010;29;20470;-74
2021/11/25 11:15:51;;;;;;;23.13;9.30;;;5.80;1.00;;;;;;4933557;29;20450;-74
2021/11/25 11:19:02;;;;;;;16.13;8.57;;;5.90;1.00;;;;;;4997307;28;20845;-76
2021/11/25 11:21:38;;;;;;;16.30;9.90;;;5.90;1.00;;;;;;4949385;28;20523;-76
2021/11/25 11:24:14;;;;;;;19.13;10.37;;;5.90;1.00;;;;;;4961652;28;20409;-76
2021/11/25 11:27:09;;;;;;;20.43;10.30;;;5.90;1.00;;;;;;4975481;28;20496;-76
2021/11/25 11:29:40;;;;;;;22.80;9.73;;;5.90;1.00;;;;;;4967429;28;20850;-76
2021/11/25 11:32:08;;;;;;;18.87;9.67;;;6.00;1.00;;;;;;4967431;28;20426;-74
2021/11/25 11:34:34;;;;;;;24.10;9.87;;;6.10;1.00;;;;;;4964576;28;21018;-74
2021/11/25 11:37:01;;;;;;;22.23;10.07;;;6.10;1.00;;;;;;4966881;28;20466;-74
2021/11/25 11:40:04;;;;;;;21.17;10.53;;;6.00;1.00;;;;;;4955847;29;20219;-74
2021/11/25 11:42:30;;;;;;;17.53;9.87;;;6.10;1.00;;;;;;4955601;29;20970;-74
2021/11/25 11:44:56;;;;;;;19.97;10.03;;;;;;;;;;4952497;28;20546;-74
2021/11/25 11:47:24;;;;;;;19.23;9.83;;;6.20;1.00;;;;;;4955823;29;20522;-76
2021/11/25 11:49:51;;;;;;;17.60;9.93;;;6.30;1.00;;;;;;4955466;29;20591;-76
2021/11/25 11:52:23;;;;;;;15.47;9.43;;;6.30;1.00;;;;;;4955638;29;20851;-76
2021/11/25 11:54:57;;;;;;;18.43;10.33;;;6.30;1.00;;;;;;4971113;28;20468;-76
2021/11/25 11:57:39;;;;;;;16.93;8.00;;;6.30;1.00;;;;;;4983552;28;20471;-76
2021/11/25 12:00:45;;;;;;;23.30;9.80;;;6.30;1.00;;;;;;4996432;28;20920;-76
2021/11/25 12:03:28;;;;;;;17.17;8.93;;;6.30;1.00;;;;;;4996400;28;20420;-74
2021/11/25 12:05:59;;;;;;;19.63;9.20;;;6.30;1.00;;;;;;4996154;28;20421;-74
2021/11/25 12:08:30;;;;;;;23.30;9.90;;;6.30;1.00;;;;;;4983904;28;20412;-74
2021/11/25 12:10:56;;;;;;;18.50;9.80;;;6.30;1.00;;;;;;4996137;28;20438;-74
2021/11/25 12:13:28;;;;;;;14.80;9.07;;;6.30;1.00;;;;;;4996051;28;20946;-74
2021/11/25 12:16:22;;;;;;;18.33;9.70;;;6.30;1.00;;;;;;4994460;28;20527;-74
2021/11/25 12:18:54;;;;;;;21.17;10.40;;;6.20;1.00;;;;;;4988780;28;20405;-74
2021/11/25 12:21:37;;;;;;;21.83;10.70;;;6.20;1.00;;;;;;4995907;28;20402;-74
2021/11/25 12:24:17;;;;;;;16.90;9.17;;;6.10;1.00;;;;;;4995874;28;21015;-74
2021/11/25 12:27:12;;;;;;;21.93;9.57;;;6.10;1.00;;;;;;4988316;28;20420;-74
2021/11/25 12:30:05;;;;;;;23.53;10.20;;;6.20;1.00;;;;;;4994963;28;20405;-74
2021/11/25 12:32:41;;;;;;;26.57;11.40;;;6.20;1.00;;;;;;4995846;28;20542;-74
2021/11/25 12:35:17;;;;;;;22.60;10.73;;;6.10;1.00;;;;;;4995590;28;20405;-74
2021/11/25 12:37:55;;;;;;;22.30;10.30;;;6.10;1.00;;;;;;4995686;28;20385;-74
2021/11/25 12:40:28;;;;;;;23.60;10.80;;;6.10;1.00;;;;;;4994454;28;20758;-74
2021/11/25 12:42:56;;;;;;;20.60;10.60;;;6.20;1.00;;;;;;4995535;28;20403;-74
2021/11/25 12:45:25;;;;;;;22.07;11.60;;;6.30;1.00;;;;;;4995352;28;20439;-74
2021/11/25 12:48:33;;;;;;;19.07;10.37;;;6.30;1.00;;;;;;4995764;28;20416;-77
2021/11/25 12:51:16;;;;;;;21.73;9.57;;;6.40;1.00;;;;;;4986998;28;20421;-76
2021/11/25 12:54:13;;;;;;;29.83;11.50;;;6.40;1.00;;;;;;4982625;28;20448;-76
2021/11/25 12:56:46;;;;;;;20.00;10.00;;;6.50;1.00;;;;;;4995183;28;20480;-76
2021/11/25 12:59:28;;;;;;;18.90;10.23;;;6.50;1.00;;;;;;4995238;28;20443;-76
2021/11/25 13:01:54;;;;;;;48.70;10.77;;;6.50;1.00;;;;;;4983514;28;20401;-74
2021/11/25 13:04:25;;;;;;;23.97;10.60;;;6.50;1.00;;;;;;4994385;28;20923;-74
2021/11/25 13:07:02;;;;;;;22.10;10.50;;;6.50;1.00;;;;;;4990534;28;20177;-74
2021/11/25 13:09:33;;;;;;;23.57;11.23;;;6.50;1.00;;;;;;4995062;28;20417;-74
2021/11/25 13:12:16;;;;;;;20.30;10.77;;;6.50;1.00;;;;;;4994878;28;20467;-74
2021/11/25 13:14:58;;;;;;;23.70;10.80;;;6.50;1.00;;;;;;4989148;28;20406;-74
2021/11/25 13:17:56;;;;;;;21.87;10.00;;;6.50;1.00;;;;;;4991345;28;20848;-77
2021/11/25 13:20:47;;;;;;;22.13;10.10;;;6.60;1.00;;;;;;4994894;28;20416;-76
2021/11/25 13:23:19;;;;;;;24.90;10.63;;;6.60;1.00;;;;;;4994541;28;20432;-77
2021/11/25 13:25:55;;;;;;;17.57;9.13;;;6.50;1.00;;;;;;4994695;28;20420;-77
2021/11/25 13:32:05;;;;;;;21.50;9.57;;;6.40;1.00;;;;;;4994418;28;20927;-76
2021/11/25 13:34:36;;;;;;;16.73;8.73;;;6.40;1.00;;;;;;4983828;28;20448;-73
2021/11/25 13:37:05;;;;;;;19.93;10.17;;;6.40;1.00;;;;;;4994222;28;20451;-74
2021/11/25 13:39:55;;;;;;;18.97;9.53;;;6.50;1.00;;;;;;5000285;28;20455;-74
2021/11/25 13:42:23;;;;;;;21.80;10.00;;;6.50;1.00;;;;;;4974988;28;20429;-74
2021/11/25 13:44:54;;;;;;;21.53;10.60;;;6.60;1.00;;;;;;4988344;28;20500;-74